createdAt,value
2022-08-10T00:00:36.380Z,0.00
2022-08-10T00:01:36.519Z,0.00
2022-08-10T00:02:36.570Z,0.00
2022-08-10T00:03:36.337Z,0.00
2022-08-10T00:04:36.338Z,0.00
2022-08-10T00:05:43.051Z,0.00
2022-08-10T00:06:37.307Z,0.00
2022-08-10T00:07:36.310Z,0.00
2022-08-10T00:08:36.289Z,0.00
2022-08-10T00:09:50.010Z,0.00
2022-08-10T00:10:37.262Z,0.00
2022-08-10T00:11:36.255Z,0.00
2022-08-10T00:12:53.343Z,0.00
2022-08-10T00:13:37.242Z,0.00
2022-08-10T00:14:36.222Z,0.00
2022-08-10T00:15:52.795Z,0.00
2022-08-10T00:16:37.200Z,0.00
2022-08-10T00:17:36.181Z,0.00
2022-08-10T00:18:36.447Z,0.00
2022-08-10T00:20:03.524Z,0.00
2022-08-10T00:20:37.150Z,0.00
2022-08-10T00:21:36.139Z,0.00
2022-08-10T00:22:36.205Z,0.00
2022-08-10T00:23:37.133Z,0.00
2022-08-10T00:24:39.134Z,0.00
2022-08-10T00:25:37.091Z,0.00
2022-08-10T00:27:52.497Z,0.00
2022-08-10T00:28:01.679Z,0.00
2022-08-10T00:28:37.052Z,0.00
2022-08-10T00:29:36.062Z,0.00
2022-08-10T00:30:36.033Z,0.00
2022-08-10T00:31:58.077Z,0.00
2022-08-10T00:32:37.012Z,0.00
2022-08-10T00:33:36.000Z,0.00
2022-08-10T00:34:36.016Z,0.00
2022-08-10T00:35:35.973Z,0.00
2022-08-10T00:36:35.972Z,0.00
2022-08-10T00:37:35.953Z,0.00
2022-08-10T00:38:35.943Z,0.00
2022-08-10T00:39:39.300Z,0.00
2022-08-10T00:40:38.064Z,0.00
2022-08-10T00:41:35.905Z,0.00
2022-08-10T00:42:36.143Z,0.00
2022-08-10T00:43:35.884Z,0.00
2022-08-10T00:44:35.874Z,0.00
2022-08-10T00:45:35.893Z,0.00
2022-08-10T00:46:35.854Z,0.00
2022-08-10T00:47:37.739Z,0.00
2022-08-10T00:48:35.834Z,0.00
2022-08-10T00:49:35.815Z,0.00
2022-08-10T00:50:35.818Z,0.00
2022-08-10T00:51:47.914Z,0.00
2022-08-10T00:52:36.967Z,0.00
2022-08-10T00:53:35.775Z,0.00
2022-08-10T00:54:35.766Z,0.00
2022-08-10T00:57:14.669Z,0.00
2022-08-10T00:57:16.560Z,0.00
2022-08-10T00:57:36.727Z,0.00
2022-08-10T00:58:35.724Z,0.00
2022-08-10T00:59:35.706Z,0.00
2022-08-10T01:00:36.699Z,0.00
2022-08-10T01:02:09.179Z,0.00
2022-08-10T01:02:36.910Z,0.00
2022-08-10T01:04:39.568Z,0.00
2022-08-10T01:04:58.982Z,0.00
2022-08-10T01:05:36.636Z,0.00
2022-08-10T01:06:36.626Z,0.00
2022-08-10T01:07:35.616Z,0.00
2022-08-10T01:08:35.627Z,0.00
2022-08-10T01:09:35.587Z,0.00
2022-08-10T01:10:35.587Z,0.00
2022-08-10T01:11:42.355Z,0.00
2022-08-10T01:12:40.517Z,0.00
2022-08-10T01:13:35.548Z,0.00
2022-08-10T01:14:35.558Z,0.00
2022-08-10T01:15:35.518Z,0.00
2022-08-10T01:16:35.518Z,0.00
2022-08-10T01:17:50.769Z,0.00
2022-08-10T01:18:37.963Z,0.00
2022-08-10T01:19:35.477Z,0.00
2022-08-10T01:20:35.498Z,0.00
2022-08-10T01:21:35.458Z,0.00
2022-08-10T01:22:35.586Z,0.00
2022-08-10T01:23:35.437Z,0.00
2022-08-10T01:24:35.429Z,0.00
2022-08-10T01:25:35.417Z,0.00
2022-08-10T01:26:37.174Z,0.00
2022-08-10T01:27:35.388Z,0.00
2022-08-10T01:28:35.381Z,0.00
2022-08-10T01:29:35.370Z,0.00
2022-08-10T01:30:35.361Z,0.00
2022-08-10T01:31:35.347Z,0.00
2022-08-10T01:32:35.516Z,0.00
2022-08-10T01:34:01.957Z,0.00
2022-08-10T01:34:36.308Z,0.00
2022-08-10T01:35:35.300Z,0.00
2022-08-10T01:36:35.290Z,0.00
2022-08-10T01:37:35.277Z,0.00
2022-08-10T01:38:35.280Z,0.00
2022-08-10T01:39:35.316Z,0.00
2022-08-10T01:40:35.241Z,0.00
2022-08-10T01:41:40.889Z,0.00
2022-08-10T01:42:36.412Z,0.00
2022-08-10T01:43:35.231Z,0.00
2022-08-10T01:44:35.201Z,0.00
2022-08-10T01:45:44.558Z,0.00
2022-08-10T01:46:36.178Z,0.00
2022-08-10T01:47:36.913Z,0.00
2022-08-10T01:48:35.150Z,0.00
2022-08-10T01:49:35.170Z,0.00
2022-08-10T01:50:35.130Z,0.00
2022-08-10T01:51:36.120Z,0.00
2022-08-10T01:52:35.180Z,0.00
2022-08-10T01:53:41.135Z,0.00
2022-08-10T01:54:36.101Z,0.00
2022-08-10T01:55:35.071Z,0.00
2022-08-10T01:56:35.064Z,0.00
2022-08-10T01:57:35.051Z,0.00
2022-08-10T01:58:35.039Z,0.00
2022-08-10T01:59:35.033Z,0.00
2022-08-10T02:00:35.031Z,0.00
2022-08-10T02:01:35.069Z,0.00
2022-08-10T02:02:35.096Z,0.00
2022-08-10T02:03:34.980Z,0.00
2022-08-10T02:04:35.973Z,0.00
2022-08-10T02:05:35.003Z,0.00
2022-08-10T02:06:34.942Z,0.00
2022-08-10T02:07:37.343Z,0.00
2022-08-10T02:08:34.922Z,0.00
2022-08-10T02:09:34.912Z,0.00
2022-08-10T02:10:34.903Z,0.00
2022-08-10T02:12:05.900Z,0.00
2022-08-10T02:12:36.048Z,0.00
2022-08-10T02:13:34.870Z,0.00
2022-08-10T02:14:34.974Z,0.00
2022-08-10T02:15:34.851Z,0.00
2022-08-10T02:16:34.832Z,0.00
2022-08-10T02:17:57.821Z,0.00
2022-08-10T02:18:35.802Z,0.00
2022-08-10T02:19:34.802Z,0.00
2022-08-10T02:20:34.783Z,0.00
2022-08-10T02:21:34.782Z,0.00
2022-08-10T02:22:37.038Z,0.00
2022-08-10T02:23:34.798Z,0.00
2022-08-10T02:24:34.742Z,0.00
2022-08-10T02:25:41.002Z,0.00
2022-08-10T02:26:35.714Z,0.00
2022-08-10T02:27:34.713Z,0.00
2022-08-10T02:28:34.694Z,0.00
2022-08-10T02:29:34.706Z,0.00
2022-08-10T02:30:34.673Z,0.00
2022-08-10T02:31:34.663Z,0.00
2022-08-10T02:32:47.666Z,0.00
2022-08-10T02:33:36.893Z,0.00
2022-08-10T02:34:34.645Z,0.00
2022-08-10T02:35:54.415Z,0.00
2022-08-10T02:36:35.604Z,0.00
2022-08-10T02:37:34.606Z,0.00
2022-08-10T02:38:58.597Z,0.00
2022-08-10T02:39:35.662Z,0.00
2022-08-10T02:42:18.427Z,0.00
2022-08-10T02:45:00.546Z,0.00
2022-08-10T02:45:17.971Z,0.00
2022-08-10T02:45:19.060Z,0.00
2022-08-10T02:45:27.644Z,0.00
2022-08-10T02:45:35.765Z,0.00
2022-08-10T02:46:34.486Z,0.00
2022-08-10T02:47:51.672Z,0.00
2022-08-10T02:48:35.465Z,0.00
2022-08-10T02:49:34.465Z,0.00
2022-08-10T02:50:34.445Z,0.00
2022-08-10T02:52:06.497Z,0.00
2022-08-10T02:52:35.612Z,0.00
2022-08-10T02:53:55.070Z,0.00
2022-08-10T02:54:35.397Z,0.00
2022-08-10T02:55:34.395Z,0.00
2022-08-10T02:56:34.399Z,0.00
2022-08-10T02:57:34.367Z,0.00
2022-08-10T02:58:34.355Z,0.00
2022-08-10T02:59:38.546Z,0.00
2022-08-10T03:00:35.338Z,0.00
2022-08-10T03:01:34.381Z,0.00
2022-08-10T03:02:34.602Z,0.00
2022-08-10T03:03:34.333Z,0.00
2022-08-10T03:04:56.022Z,0.00
2022-08-10T03:05:35.278Z,0.00
2022-08-10T03:06:34.264Z,0.00
2022-08-10T03:07:42.840Z,0.00
2022-08-10T03:08:35.287Z,0.00
2022-08-10T03:09:34.236Z,0.00
2022-08-10T03:10:34.217Z,0.00
2022-08-10T03:12:35.170Z,0.00
2022-08-10T03:12:38.160Z,0.00
2022-08-10T03:13:34.187Z,0.00
2022-08-10T03:14:34.196Z,0.00
2022-08-10T03:15:34.165Z,0.00
2022-08-10T03:16:34.147Z,0.00
2022-08-10T03:17:34.138Z,0.00
2022-08-10T03:18:34.129Z,0.00
2022-08-10T03:20:33.545Z,0.00
2022-08-10T03:20:39.304Z,0.00
2022-08-10T03:21:35.099Z,0.00
2022-08-10T03:22:34.153Z,0.00
2022-08-10T03:23:34.077Z,0.00
2022-08-10T03:24:34.058Z,0.00
2022-08-10T03:25:34.078Z,0.00
2022-08-10T03:26:34.039Z,4.00
2022-08-10T03:27:34.029Z,4.00
2022-08-10T03:28:34.018Z,0.00
2022-08-10T03:30:29.324Z,0.00
2022-08-10T03:30:35.098Z,4.00
2022-08-10T03:31:33.999Z,4.00
2022-08-10T03:32:35.114Z,4.00
2022-08-10T03:33:33.965Z,8.00
2022-08-10T03:34:33.973Z,4.00
2022-08-10T03:35:33.939Z,4.00
2022-08-10T03:36:42.445Z,8.00
2022-08-10T03:37:34.917Z,8.00
2022-08-10T03:38:33.900Z,8.00
2022-08-10T03:39:33.944Z,12.00
2022-08-10T03:40:44.919Z,12.00
2022-08-10T03:41:35.615Z,16.00
2022-08-10T03:42:33.926Z,20.00
2022-08-10T03:43:33.850Z,20.00
2022-08-10T03:44:33.839Z,24.00
2022-08-10T03:45:55.531Z,28.00
2022-08-10T03:46:34.818Z,32.00
2022-08-10T03:47:33.830Z,40.00
2022-08-10T03:48:48.492Z,44.00
2022-08-10T03:49:34.780Z,52.00
2022-08-10T03:50:51.375Z,56.00
2022-08-10T03:51:34.760Z,68.00
2022-08-10T03:52:33.740Z,76.00
2022-08-10T03:54:03.257Z,88.00
2022-08-10T03:54:34.721Z,100.00
2022-08-10T03:56:30.496Z,112.00
2022-08-10T03:56:34.713Z,128.00
2022-08-10T03:57:33.693Z,140.00
2022-08-10T03:58:33.671Z,160.00
2022-08-10T03:59:33.711Z,176.00
2022-08-10T04:00:33.697Z,200.00
2022-08-10T04:02:41.434Z,220.00
2022-08-10T04:02:46.060Z,240.00
2022-08-10T04:04:43.546Z,292.00
2022-08-10T04:05:43.519Z,320.00
2022-08-10T04:06:43.498Z,348.00
2022-08-10T04:07:43.500Z,380.00
2022-08-10T04:08:43.479Z,412.00
2022-08-10T04:09:54.169Z,444.00
2022-08-10T04:10:44.470Z,480.00
2022-08-10T04:11:43.450Z,516.00
2022-08-10T04:12:43.431Z,552.00
2022-08-10T04:13:43.420Z,592.00
2022-08-10T04:14:49.293Z,632.00
2022-08-10T04:15:44.428Z,680.00
2022-08-10T04:16:43.390Z,724.00
2022-08-10T04:18:03.362Z,772.00
2022-08-10T04:18:44.361Z,824.00
2022-08-10T04:19:43.358Z,872.00
2022-08-10T04:20:43.341Z,924.00
2022-08-10T04:21:43.358Z,976.00
2022-08-10T04:22:43.325Z,1028.00
2022-08-10T04:23:43.325Z,1084.00
2022-08-10T04:24:43.300Z,1140.00
2022-08-10T04:25:43.290Z,1200.00
2022-08-10T04:26:43.271Z,1260.00
2022-08-10T04:27:43.290Z,1320.00
2022-08-10T04:28:43.259Z,1384.00
2022-08-10T04:29:43.250Z,1444.00
2022-08-10T04:30:43.231Z,1504.00
2022-08-10T04:31:43.222Z,1568.00
2022-08-10T04:32:43.210Z,1632.00
2022-08-10T04:33:43.211Z,1696.00
2022-08-10T04:34:43.190Z,1760.00
2022-08-10T04:35:43.180Z,1828.00
2022-08-10T04:36:43.165Z,1888.00
2022-08-10T04:37:46.781Z,1956.00
2022-08-10T04:38:43.163Z,2020.00
2022-08-10T04:39:43.238Z,2080.00
2022-08-10T04:40:43.122Z,2148.00
2022-08-10T04:41:46.267Z,2208.00
2022-08-10T04:42:43.094Z,2268.00
2022-08-10T04:43:43.083Z,2332.00
2022-08-10T04:44:43.091Z,2396.00
2022-08-10T04:45:48.750Z,2460.00
2022-08-10T04:46:58.456Z,2524.00
2022-08-10T04:47:57.614Z,2588.00
2022-08-10T04:49:01.547Z,2652.00
2022-08-10T04:49:54.965Z,2716.00
2022-08-10T04:50:44.004Z,2784.00
2022-08-10T04:51:42.993Z,2852.00
2022-08-10T04:52:42.982Z,2916.00
2022-08-10T04:54:04.308Z,2984.00
2022-08-10T04:54:43.963Z,3052.00
2022-08-10T04:55:42.973Z,3112.00
2022-08-10T04:56:42.934Z,3176.00
2022-08-10T04:57:42.930Z,3240.00
2022-08-10T04:58:42.913Z,3304.00
2022-08-10T04:59:42.906Z,3364.00
2022-08-10T05:00:42.949Z,3432.00
2022-08-10T05:02:29.034Z,3504.00
2022-08-10T05:02:43.874Z,3576.00
2022-08-10T05:04:34.870Z,3648.00
2022-08-10T05:04:43.844Z,3732.00
2022-08-10T05:05:42.842Z,3808.00
2022-08-10T05:06:42.844Z,3888.00
2022-08-10T05:07:54.152Z,3976.00
2022-08-10T05:08:43.803Z,4072.00
2022-08-10T05:10:03.700Z,4160.00
2022-08-10T05:10:43.785Z,4256.00
2022-08-10T05:11:42.775Z,4356.00
2022-08-10T05:12:42.803Z,4460.00
2022-08-10T05:13:42.745Z,4556.00
2022-08-10T05:14:42.736Z,4632.00
2022-08-10T05:15:42.725Z,4704.00
2022-08-10T05:16:42.714Z,4780.00
2022-08-10T05:18:04.556Z,4856.00
2022-08-10T05:18:43.705Z,4880.00
2022-08-10T05:20:02.999Z,4908.00
2022-08-10T05:20:47.265Z,4940.00
2022-08-10T05:22:01.475Z,4976.00
2022-08-10T05:22:43.639Z,5020.00
2022-08-10T05:23:42.634Z,5084.00
2022-08-10T05:24:42.644Z,5152.00
2022-08-10T05:25:42.637Z,5228.00
2022-08-10T05:27:00.397Z,5332.00
2022-08-10T05:27:43.593Z,5460.00
2022-08-10T05:28:42.576Z,5644.00
2022-08-10T05:29:42.574Z,5864.00
2022-08-10T05:30:42.569Z,6060.00
2022-08-10T05:31:42.546Z,6212.00
2022-08-10T05:32:57.275Z,6276.00
2022-08-10T05:33:43.524Z,6264.00
2022-08-10T05:34:42.512Z,6208.00
2022-08-10T05:35:57.223Z,6136.00
2022-08-10T05:36:43.489Z,6132.00
2022-08-10T05:38:12.291Z,6224.00
2022-08-10T05:38:43.476Z,6340.00
2022-08-10T05:39:42.504Z,6504.00
2022-08-10T05:40:46.149Z,6660.00
2022-08-10T05:41:46.075Z,6772.00
2022-08-10T05:42:42.428Z,6992.00
2022-08-10T05:43:42.419Z,7140.00
2022-08-10T05:44:42.410Z,7484.00
2022-08-10T05:46:18.234Z,7704.00
2022-08-10T05:46:43.399Z,7740.00
2022-08-10T05:48:55.304Z,7968.00
2022-08-10T05:48:59.453Z,8216.00
2022-08-10T05:49:43.349Z,8588.00
2022-08-10T05:50:42.347Z,8844.00
2022-08-10T05:51:42.340Z,8936.00
2022-08-10T05:52:42.328Z,9344.00
2022-08-10T05:54:04.211Z,9816.00
2022-08-10T05:54:43.300Z,10260.00
2022-08-10T05:55:42.298Z,10660.00
2022-08-10T05:56:55.169Z,11456.00
2022-08-10T05:57:43.279Z,12108.00
2022-08-10T05:58:42.250Z,12784.00
2022-08-10T06:00:34.603Z,13456.00
2022-08-10T06:00:49.743Z,14252.00
2022-08-10T06:01:43.231Z,15272.00
2022-08-10T06:02:43.453Z,15856.00
2022-08-10T06:03:42.209Z,17312.00
2022-08-10T06:04:42.178Z,18240.00
2022-08-10T06:05:42.180Z,18880.00
2022-08-10T06:06:42.150Z,19360.00
2022-08-10T06:07:42.149Z,19776.00
2022-08-10T06:08:42.154Z,20032.00
2022-08-10T06:09:59.585Z,20128.00
2022-08-10T06:12:23.690Z,20864.00
2022-08-10T06:12:23.857Z,25856.00
2022-08-10T06:12:55.136Z,31520.00
2022-08-10T06:13:59.770Z,32448.00
2022-08-10T06:14:43.073Z,35744.00
2022-08-10T06:15:51.725Z,39200.00
2022-08-10T06:16:43.042Z,39296.00
2022-08-10T06:17:42.033Z,36320.00
2022-08-10T06:18:42.020Z,35008.00
2022-08-10T06:19:42.031Z,41056.00
2022-08-10T06:20:42.001Z,47808.00
2022-08-10T06:22:00.898Z,49600.00
2022-08-10T06:22:42.974Z,43936.00
2022-08-10T06:23:41.965Z,34848.00
2022-08-10T06:25:02.723Z,30336.00
2022-08-10T06:26:11.253Z,29664.00
2022-08-10T06:26:42.939Z,27520.00
2022-08-10T06:27:41.923Z,28192.00
2022-08-10T06:28:41.915Z,28224.00
2022-08-10T06:29:41.903Z,28000.00
2022-08-10T06:30:41.884Z,27904.00
2022-08-10T06:31:47.724Z,27904.00
2022-08-10T06:32:42.864Z,27104.00
2022-08-10T06:33:41.855Z,28160.00
2022-08-10T06:34:41.846Z,28416.00
2022-08-10T06:35:41.846Z,28832.00
2022-08-10T06:36:41.836Z,29056.00
2022-08-10T06:37:41.816Z,29696.00
2022-08-10T06:38:41.811Z,32608.00
2022-08-10T06:39:41.866Z,39616.00
2022-08-10T06:40:41.779Z,42560.00
2022-08-10T06:42:01.364Z,42688.00
2022-08-10T06:42:42.777Z,44096.00
2022-08-10T06:43:41.748Z,46240.00
2022-08-10T06:44:41.739Z,46432.00
2022-08-10T06:45:41.740Z,45856.00
2022-08-10T06:46:44.990Z,47040.00
2022-08-10T06:47:42.730Z,48448.00
2022-08-10T06:48:41.699Z,48320.00
2022-08-10T06:49:41.690Z,47776.00
2022-08-10T06:50:56.265Z,45696.00
2022-08-10T06:51:42.669Z,46816.00
2022-08-10T06:52:41.659Z,45280.00
2022-08-10T06:53:52.915Z,47520.00
2022-08-10T06:54:42.640Z,52512.00
2022-08-10T06:55:55.222Z,54432.00
2022-08-10T06:56:55.877Z,56352.00
2022-08-10T06:57:42.601Z,56160.00
2022-08-10T06:58:41.593Z,53952.00
2022-08-10T06:59:41.602Z,51840.00
2022-08-10T07:00:41.656Z,53664.00
2022-08-10T07:01:41.561Z,54848.00
2022-08-10T07:02:42.543Z,56000.00
2022-08-10T07:03:41.535Z,57440.00
2022-08-10T07:04:41.526Z,59072.00
2022-08-10T07:05:41.542Z,57600.00
2022-08-10T07:06:41.514Z,58688.00
2022-08-10T07:07:41.495Z,60800.00
2022-08-10T07:08:41.484Z,58752.00
2022-08-10T07:09:41.472Z,55648.00
2022-08-10T07:10:46.314Z,56256.00
2022-08-10T07:11:42.476Z,56608.00
2022-08-10T07:12:41.446Z,57984.00
2022-08-10T07:14:16.047Z,60480.00
2022-08-10T07:14:42.475Z,61280.00
2022-08-10T07:16:00.025Z,61440.00
2022-08-10T07:16:42.447Z,61632.00
2022-08-10T07:17:41.387Z,61824.00
2022-08-10T07:18:41.378Z,63264.00
2022-08-10T07:19:50.047Z,64928.00
2022-08-10T07:20:42.358Z,67840.00
2022-08-10T07:21:41.347Z,67712.00
2022-08-10T07:23:54.503Z,65600.00
2022-08-10T07:23:58.222Z,64896.00
2022-08-10T07:24:42.331Z,59776.00
2022-08-10T07:25:41.311Z,54624.00
2022-08-10T07:26:41.299Z,63232.00
2022-08-10T07:27:59.222Z,64896.00
2022-08-10T07:28:47.519Z,64448.00
2022-08-10T07:29:53.799Z,58912.00
2022-08-10T07:30:42.259Z,59456.00
2022-08-10T07:31:55.783Z,64704.00
2022-08-10T07:32:42.251Z,63584.00
2022-08-10T07:33:41.242Z,65888.00
2022-08-10T07:34:41.223Z,68160.00
2022-08-10T07:35:42.096Z,68256.00
2022-08-10T07:36:41.204Z,68128.00
2022-08-10T07:37:41.185Z,67968.00
2022-08-10T07:38:41.194Z,67072.00
2022-08-10T07:39:57.931Z,69120.00
2022-08-10T07:40:42.222Z,69920.00
2022-08-10T07:41:41.143Z,69920.00
2022-08-10T07:42:45.138Z,69536.00
2022-08-10T07:43:41.144Z,67776.00
2022-08-10T07:44:41.116Z,67232.00
2022-08-10T07:45:41.107Z,65696.00
2022-08-10T07:46:41.096Z,61216.00
2022-08-10T07:47:54.038Z,60544.00
2022-08-10T07:48:42.101Z,62304.00
2022-08-10T07:49:41.068Z,64608.00
2022-08-10T07:50:41.056Z,68288.00
2022-08-10T07:51:41.040Z,71456.00
2022-08-10T07:52:41.039Z,70720.00
2022-08-10T07:53:41.026Z,69824.00
2022-08-10T07:54:41.038Z,70816.00
2022-08-10T07:56:03.407Z,72544.00
2022-08-10T07:56:48.940Z,71744.00
2022-08-10T07:57:41.980Z,68640.00
2022-08-10T07:58:51.801Z,69184.00
2022-08-10T07:59:41.982Z,69984.00
2022-08-10T08:00:40.959Z,71104.00
2022-08-10T08:01:41.015Z,71136.00
2022-08-10T08:02:40.931Z,66656.00
2022-08-10T08:03:40.931Z,67680.00
2022-08-10T08:04:40.922Z,72800.00
2022-08-10T08:06:02.512Z,75968.00
2022-08-10T08:06:41.894Z,75008.00
2022-08-10T08:07:40.892Z,75648.00
2022-08-10T08:08:40.880Z,77856.00
2022-08-10T08:09:58.346Z,77568.00
2022-08-10T08:10:41.874Z,75808.00
2022-08-10T08:11:40.854Z,74496.00
2022-08-10T08:12:40.983Z,69824.00
2022-08-10T08:13:40.824Z,68544.00
2022-08-10T08:14:40.816Z,69792.00
2022-08-10T08:16:18.352Z,73792.00
2022-08-10T08:16:41.815Z,76256.00
2022-08-10T08:17:40.781Z,77120.00
2022-08-10T08:18:43.747Z,79168.00
2022-08-10T08:19:46.029Z,78400.00
2022-08-10T08:20:41.758Z,74816.00
2022-08-10T08:24:04.411Z,77280.00
2022-08-10T08:24:04.877Z,74016.00
2022-08-10T08:24:07.807Z,79904.00
2022-08-10T08:24:42.102Z,69088.00
2022-08-10T08:25:40.711Z,69440.00
2022-08-10T08:26:40.700Z,75712.00
2022-08-10T08:27:40.708Z,79360.00
2022-08-10T08:28:41.679Z,80000.00
2022-08-10T08:29:40.669Z,79872.00
2022-08-10T08:30:43.452Z,76608.00
2022-08-10T08:32:01.887Z,75840.00
2022-08-10T08:32:41.668Z,75392.00
2022-08-10T08:33:42.517Z,77472.00
2022-08-10T08:34:40.624Z,76544.00
2022-08-10T08:35:40.612Z,74656.00
2022-08-10T08:36:40.599Z,76224.00
2022-08-10T08:38:29.535Z,73248.00
2022-08-10T08:38:41.601Z,71904.00
2022-08-10T08:39:40.624Z,71392.00
2022-08-10T08:40:40.560Z,73472.00
2022-08-10T08:41:40.552Z,75776.00
2022-08-10T08:42:40.542Z,73120.00
2022-08-10T08:43:40.544Z,73984.00
2022-08-10T08:44:40.524Z,76896.00
2022-08-10T08:45:50.872Z,82272.00
2022-08-10T08:46:41.509Z,79136.00
2022-08-10T08:48:03.595Z,79712.00
2022-08-10T08:48:41.504Z,80992.00
2022-08-10T08:50:08.055Z,78752.00
2022-08-10T08:50:41.464Z,79872.00
2022-08-10T08:52:07.298Z,79456.00
2022-08-10T08:52:41.444Z,81376.00
2022-08-10T08:54:02.428Z,84576.00
2022-08-10T08:54:41.449Z,84320.00
2022-08-10T08:56:04.621Z,84896.00
2022-08-10T08:56:41.407Z,85248.00
2022-08-10T08:57:49.494Z,86784.00
2022-08-10T08:58:41.387Z,84640.00
2022-08-10T08:59:40.460Z,84928.00
2022-08-10T09:00:40.366Z,84448.00
2022-08-10T09:01:41.425Z,81312.00
2022-08-10T09:02:40.349Z,78496.00
2022-08-10T09:03:40.349Z,78432.00
2022-08-10T09:04:40.330Z,77888.00
2022-08-10T09:05:58.801Z,79136.00
2022-08-10T09:06:41.310Z,81280.00
2022-08-10T09:08:00.910Z,83072.00
2022-08-10T09:08:41.290Z,84448.00
2022-08-10T09:09:40.281Z,85984.00
2022-08-10T09:10:40.309Z,89728.00
2022-08-10T09:11:40.265Z,86880.00
2022-08-10T09:12:40.254Z,84448.00
2022-08-10T09:13:40.241Z,85248.00
2022-08-10T09:14:40.242Z,84000.00
2022-08-10T09:15:41.643Z,83040.00
2022-08-10T09:16:40.462Z,82400.00
2022-08-10T09:17:40.216Z,81696.00
2022-08-10T09:18:40.207Z,82272.00
2022-08-10T09:19:40.193Z,84544.00
2022-08-10T09:20:40.184Z,86656.00
2022-08-10T09:21:51.540Z,86208.00
2022-08-10T09:22:41.190Z,88128.00
2022-08-10T09:24:05.155Z,90880.00
2022-08-10T09:24:41.151Z,88832.00
2022-08-10T09:25:40.136Z,86304.00
2022-08-10T09:26:40.126Z,86592.00
2022-08-10T09:27:40.135Z,87136.00
2022-08-10T09:28:40.129Z,86752.00
2022-08-10T09:29:40.097Z,82752.00
2022-08-10T09:30:40.624Z,78560.00
2022-08-10T09:31:40.078Z,77632.00
2022-08-10T09:36:15.986Z,78720.00
2022-08-10T09:36:20.576Z,89728.00
2022-08-10T09:36:21.775Z,89536.00
2022-08-10T09:36:23.156Z,84608.00
2022-08-10T09:36:41.571Z,88544.00
2022-08-10T09:38:01.015Z,87936.00
2022-08-10T09:38:41.039Z,86688.00
2022-08-10T09:40:06.938Z,84960.00
2022-08-10T09:41:01.224Z,87200.00
2022-08-10T09:41:41.066Z,90656.00
2022-08-10T09:42:39.980Z,91136.00
2022-08-10T09:43:39.960Z,94176.00
2022-08-10T09:44:57.156Z,90848.00
2022-08-10T09:45:40.959Z,88192.00
2022-08-10T09:46:39.941Z,86112.00
2022-08-10T09:47:58.575Z,83872.00
2022-08-10T09:48:40.926Z,64160.00
2022-08-10T09:49:54.328Z,21952.00
2022-08-10T09:51:09.337Z,12924.00
2022-08-10T09:51:47.097Z,12660.00
2022-08-10T09:52:40.882Z,12736.00
2022-08-10T09:53:39.875Z,12228.00
2022-08-10T09:54:39.863Z,11832.00
2022-08-10T09:56:17.847Z,11832.00
2022-08-10T09:56:40.844Z,12120.00
2022-08-10T09:57:41.469Z,12312.00
2022-08-10T09:58:40.826Z,12436.00
2022-08-10T10:00:00.248Z,12676.00
2022-08-10T10:00:40.825Z,13308.00
2022-08-10T10:01:58.253Z,13848.00
2022-08-10T10:02:40.776Z,14336.00
2022-08-10T10:03:46.909Z,14320.00
2022-08-10T10:04:42.394Z,13872.00
2022-08-10T10:05:39.762Z,12944.00
2022-08-10T10:06:40.772Z,12876.00
2022-08-10T10:07:39.745Z,12828.00
2022-08-10T10:08:42.920Z,12572.00
2022-08-10T10:09:39.720Z,12120.00
2022-08-10T10:10:46.570Z,11288.00
2022-08-10T10:11:40.695Z,10964.00
2022-08-10T10:12:39.706Z,10756.00
2022-08-10T10:14:03.524Z,10540.00
2022-08-10T10:14:40.664Z,10648.00
2022-08-10T10:15:39.648Z,10992.00
2022-08-10T10:16:39.644Z,11324.00
2022-08-10T10:17:39.617Z,11292.00
2022-08-10T10:18:39.635Z,11172.00
2022-08-10T10:19:40.856Z,10408.00
2022-08-10T10:20:39.586Z,10136.00
2022-08-10T10:21:55.877Z,10164.00
2022-08-10T10:22:40.590Z,10136.00
2022-08-10T10:23:39.579Z,9944.00
2022-08-10T10:24:39.580Z,9700.00
2022-08-10T10:25:50.786Z,9280.00
2022-08-10T10:26:40.529Z,9164.00
2022-08-10T10:27:39.519Z,9112.00
2022-08-10T10:29:15.113Z,9132.00
2022-08-10T10:29:56.644Z,9064.00
2022-08-10T10:30:40.483Z,9004.00
2022-08-10T10:31:39.474Z,9168.00
2022-08-10T10:32:39.469Z,9168.00
2022-08-10T10:33:39.451Z,9092.00
2022-08-10T10:34:39.454Z,9000.00
2022-08-10T10:35:39.462Z,8908.00
2022-08-10T10:36:39.423Z,8796.00
2022-08-10T10:38:02.744Z,8692.00
2022-08-10T10:38:40.403Z,8612.00
2022-08-10T10:39:39.401Z,8576.00
2022-08-10T10:40:39.385Z,8656.00
2022-08-10T10:41:56.354Z,8716.00
2022-08-10T10:42:45.540Z,8664.00
2022-08-10T10:43:40.343Z,8656.00
2022-08-10T10:44:42.311Z,8492.00
2022-08-10T10:45:49.972Z,8368.00
2022-08-10T10:46:40.463Z,8452.00
2022-08-10T10:47:39.305Z,8616.00
2022-08-10T10:48:39.294Z,8764.00
2022-08-10T10:49:39.286Z,8768.00
2022-08-10T10:50:39.274Z,8792.00
2022-08-10T10:51:39.274Z,8712.00
2022-08-10T10:52:39.276Z,8672.00
2022-08-10T10:53:39.236Z,8480.00
2022-08-10T10:54:39.242Z,8588.00
2022-08-10T10:55:50.025Z,8664.00
2022-08-10T10:56:40.207Z,8796.00
2022-08-10T10:57:58.491Z,8748.00
2022-08-10T10:58:40.217Z,8552.00
2022-08-10T10:59:54.895Z,8372.00
2022-08-10T11:00:40.181Z,8200.00
2022-08-10T11:01:39.244Z,7996.00
2022-08-10T11:02:39.144Z,7896.00
2022-08-10T11:03:39.127Z,7872.00
2022-08-10T11:04:39.179Z,7968.00
2022-08-10T11:05:39.111Z,8024.00
2022-08-10T11:06:40.123Z,8148.00
2022-08-10T11:07:39.142Z,8384.00
2022-08-10T11:08:39.070Z,8724.00
2022-08-10T11:10:03.442Z,9256.00
2022-08-10T11:10:47.359Z,9916.00
2022-08-10T11:12:01.434Z,9640.00
2022-08-10T11:12:40.757Z,9028.00
2022-08-10T11:14:24.598Z,8712.00
2022-08-10T11:14:40.010Z,8284.00
2022-08-10T11:15:42.683Z,7924.00
2022-08-10T11:16:40.006Z,7636.00
2022-08-10T11:17:38.980Z,7704.00
2022-08-10T11:18:38.966Z,7912.00
2022-08-10T11:20:03.002Z,8232.00
2022-08-10T11:20:39.943Z,8680.00
2022-08-10T11:21:38.963Z,8820.00
2022-08-10T11:22:38.931Z,8672.00
2022-08-10T11:23:38.912Z,8280.00
2022-08-10T11:24:47.005Z,7588.00
2022-08-10T11:25:39.894Z,7296.00
2022-08-10T11:26:38.875Z,6672.00
2022-08-10T11:27:38.924Z,7324.00
2022-08-10T11:28:38.862Z,7112.00
2022-08-10T11:29:42.569Z,6888.00
2022-08-10T11:30:39.850Z,6848.00
2022-08-10T11:31:38.836Z,6648.00
2022-08-10T11:32:38.807Z,6616.00
2022-08-10T11:34:04.156Z,6588.00
2022-08-10T11:34:48.949Z,6544.00
2022-08-10T11:35:39.796Z,6512.00
2022-08-10T11:36:38.778Z,6472.00
2022-08-10T11:38:31.119Z,6436.00
2022-08-10T11:38:47.445Z,6428.00
2022-08-10T11:39:48.549Z,6412.00
2022-08-10T11:40:39.731Z,6424.00
2022-08-10T11:42:09.402Z,6448.00
2022-08-10T11:42:39.700Z,6452.00
2022-08-10T11:43:38.715Z,6452.00
2022-08-10T11:44:38.710Z,6440.00
2022-08-10T11:45:38.678Z,6396.00
2022-08-10T11:46:39.659Z,6372.00
2022-08-10T11:47:38.653Z,6380.00
2022-08-10T11:48:53.923Z,6372.00
2022-08-10T11:49:39.650Z,6344.00
2022-08-10T11:50:38.630Z,6316.00
2022-08-10T11:51:38.619Z,6316.00
2022-08-10T11:52:38.600Z,6300.00
2022-08-10T11:53:39.306Z,6300.00
2022-08-10T11:54:38.561Z,6292.00
2022-08-10T11:55:38.593Z,6292.00
2022-08-10T11:56:38.551Z,6292.00
2022-08-10T11:57:53.774Z,6284.00
2022-08-10T11:58:39.538Z,6276.00
2022-08-10T11:59:38.523Z,6268.00
2022-08-10T12:00:38.504Z,6268.00
2022-08-10T12:01:38.521Z,6276.00
2022-08-10T12:02:38.645Z,6296.00
2022-08-10T12:03:38.475Z,6280.00
2022-08-10T12:04:38.464Z,6280.00
2022-08-10T12:05:48.307Z,6272.00
2022-08-10T12:06:54.728Z,6276.00
2022-08-10T12:08:54.948Z,6268.00
2022-08-10T12:10:01.949Z,6284.00
2022-08-10T12:10:11.243Z,6284.00
2022-08-10T12:10:40.973Z,6292.00
2022-08-10T12:11:38.390Z,6324.00
2022-08-10T12:12:38.447Z,6344.00
2022-08-10T12:13:38.368Z,6360.00
2022-08-10T12:14:38.356Z,6352.00
2022-08-10T12:15:38.386Z,6356.00
2022-08-10T12:16:38.329Z,6380.00
2022-08-10T12:17:38.340Z,6388.00
2022-08-10T12:18:38.309Z,6376.00
2022-08-10T12:20:02.548Z,6376.00
2022-08-10T12:20:39.311Z,6388.00